sensor_id;sensor_type;location;lat;lon;timestamp;pressure;altitude;pressure_sealevel;temperature;humidity
44027;BME280;29696;55.698;37.460;2022-09-09T00:00:15;100271.59;;;6.96;74.34
44027;BME280;29696;55.698;37.460;2022-09-09T00:02:49;100290.19;;;6.93;74.21
44027;BME280;29696;55.698;37.460;2022-09-09T00:05:26;100284.94;;;6.93;74.37
44027;BME280;29696;55.698;37.460;2022-09-09T00:07:58;100279.41;;;6.83;74.28
44027;BME280;29696;55.698;37.460;2022-09-09T00:10:48;100289.25;;;6.94;74.70
44027;BME280;29696;55.698;37.460;2022-09-09T00:13:44;100293.97;;;6.89;74.71
44027;BME280;29696;55.698;37.460;2022-09-09T00:16:19;100282.22;;;6.80;74.98
44027;BME280;29696;55.698;37.460;2022-09-09T00:22:19;100290.84;;;6.82;75.30
44027;BME280;29696;55.698;37.460;2022-09-09T00:24:55;100289.72;;;6.72;75.33
44027;BME280;29696;55.698;37.460;2022-09-09T00:27:54;100292.72;;;6.80;75.77
44027;BME280;29696;55.698;37.460;2022-09-09T00:30:23;100291.69;;;6.68;75.84
44027;BME280;29696;55.698;37.460;2022-09-09T00:32:54;100291.88;;;6.65;75.56
44027;BME280;29696;55.698;37.460;2022-09-09T00:35:29;100284.19;;;6.62;75.86
44027;BME280;29696;55.698;37.460;2022-09-09T00:38:00;100290.53;;;6.58;75.93
44027;BME280;29696;55.698;37.460;2022-09-09T00:40:38;100288.50;;;6.63;76.13
44027;BME280;29696;55.698;37.460;2022-09-09T00:43:46;100296.13;;;6.68;76.40
44027;BME280;29696;55.698;37.460;2022-09-09T00:55:47;100305.28;;;6.60;76.77
44027;BME280;29696;55.698;37.460;2022-09-09T00:58:34;100301.72;;;6.47;76.40
44027;BME280;29696;55.698;37.460;2022-09-09T01:01:11;100317.75;;;6.57;76.95
44027;BME280;29696;55.698;37.460;2022-09-09T01:04:02;100318.41;;;6.60;76.96
44027;BME280;29696;55.698;37.460;2022-09-09T01:06:36;100319.16;;;6.48;76.96
44027;BME280;29696;55.698;37.460;2022-09-09T01:12:41;100311.66;;;6.56;77.16
44027;BME280;29696;55.698;37.460;2022-09-09T01:15:15;100326.53;;;6.42;76.97
44027;BME280;29696;55.698;37.460;2022-09-09T01:28:02;100336.47;;;6.36;77.75
44027;BME280;29696;55.698;37.460;2022-09-09T01:30:33;100342.72;;;6.34;78.02
44027;BME280;29696;55.698;37.460;2022-09-09T01:33:00;100336.81;;;6.30;77.71
44027;BME280;29696;55.698;37.460;2022-09-09T01:35:59;100344.75;;;6.45;77.81
44027;BME280;29696;55.698;37.460;2022-09-09T01:38:33;100343.03;;;6.29;77.67
44027;BME280;29696;55.698;37.460;2022-09-09T01:41:00;100344.81;;;6.29;77.67
44027;BME280;29696;55.698;37.460;2022-09-09T01:43:37;100350.13;;;6.27;77.54
44027;BME280;29696;55.698;37.460;2022-09-09T01:46:03;100347.69;;;6.24;77.42
44027;BME280;29696;55.698;37.460;2022-09-09T01:48:31;100343.72;;;6.17;77.40
44027;BME280;29696;55.698;37.460;2022-09-09T01:51:08;100348.31;;;6.13;77.83
44027;BME280;29696;55.698;37.460;2022-09-09T01:53:38;100356.44;;;6.09;77.89
44027;BME280;29696;55.698;37.460;2022-09-09T02:00:12;100358.41;;;6.05;78.84
44027;BME280;29696;55.698;37.460;2022-09-09T02:03:05;100365.09;;;5.95;79.19
44027;BME280;29696;55.698;37.460;2022-09-09T02:09:11;100364.75;;;5.69;79.87
44027;BME280;29696;55.698;37.460;2022-09-09T02:11:41;100370.16;;;5.66;80.15
44027;BME280;29696;55.698;37.460;2022-09-09T02:14:25;100367.88;;;5.60;80.48
44027;BME280;29696;55.698;37.460;2022-09-09T02:16:57;100381.06;;;5.59;80.86
44027;BME280;29696;55.698;37.460;2022-09-09T02:19:47;100375.97;;;5.56;80.91
44027;BME280;29696;55.698;37.460;2022-09-09T02:22:27;100371.00;;;5.51;80.86
44027;BME280;29696;55.698;37.460;2022-09-09T02:24:57;100384.69;;;5.56;81.38
44027;BME280;29696;55.698;37.460;2022-09-09T02:27:27;100383.13;;;5.54;81.34
44027;BME280;29696;55.698;37.460;2022-09-09T02:29:56;100382.84;;;5.58;81.37
44027;BME280;29696;55.698;37.460;2022-09-09T02:32:36;100387.91;;;5.61;81.29
44027;BME280;29696;55.698;37.460;2022-09-09T02:35:09;100388.69;;;5.63;81.07
44027;BME280;29696;55.698;37.460;2022-09-09T02:37:39;100381.84;;;5.61;80.98
44027;BME280;29696;55.698;37.460;2022-09-09T02:40:09;100388.41;;;5.68;81.03
44027;BME280;29696;55.698;37.460;2022-09-09T02:42:45;100384.88;;;5.69;80.54
44027;BME280;29696;55.698;37.460;2022-09-09T02:45:15;100392.81;;;5.67;80.43
44027;BME280;29696;55.698;37.460;2022-09-09T02:51:06;100396.88;;;5.73;80.89
44027;BME280;29696;55.698;37.460;2022-09-09T02:53:49;100403.47;;;5.64;80.94
44027;BME280;29696;55.698;37.460;2022-09-09T02:56:19;100408.28;;;5.56;81.06
44027;BME280;29696;55.698;37.460;2022-09-09T02:58:49;100397.28;;;5.49;80.97
44027;BME280;29696;55.698;37.460;2022-09-09T03:01:15;100409.41;;;5.52;81.16
44027;BME280;29696;55.698;37.460;2022-09-09T03:03:42;100400.75;;;5.50;81.46
44027;BME280;29696;55.698;37.460;2022-09-09T03:06:14;100408.47;;;5.53;81.30
44027;BME280;29696;55.698;37.460;2022-09-09T03:08:43;100410.22;;;5.53;81.13
44027;BME280;29696;55.698;37.460;2022-09-09T03:11:11;100413.78;;;5.52;80.98
44027;BME280;29696;55.698;37.460;2022-09-09T03:13:37;100410.56;;;5.46;81.04
44027;BME280;29696;55.698;37.460;2022-09-09T03:16:05;100411.84;;;5.39;81.10
44027;BME280;29696;55.698;37.460;2022-09-09T03:18:35;100420.72;;;5.37;81.17
44027;BME280;29696;55.698;37.460;2022-09-09T03:21:02;100416.63;;;5.31;81.40
44027;BME280;29696;55.698;37.460;2022-09-09T03:23:29;100413.41;;;5.26;81.71
44027;BME280;29696;55.698;37.460;2022-09-09T03:25:58;100419.56;;;5.25;82.05
44027;BME280;29696;55.698;37.460;2022-09-09T03:28:34;100421.06;;;5.46;82.52
44027;BME280;29696;55.698;37.460;2022-09-09T03:31:03;100418.31;;;6.59;81.54
44027;BME280;29696;55.698;37.460;2022-09-09T03:33:35;100413.69;;;7.64;77.21
44027;BME280;29696;55.698;37.460;2022-09-09T03:36:03;100423.72;;;8.80;71.09
44027;BME280;29696;55.698;37.460;2022-09-09T03:38:30;100421.09;;;9.31;67.02
44027;BME280;29696;55.698;37.460;2022-09-09T03:40:58;100430.47;;;8.97;66.49
44027;BME280;29696;55.698;37.460;2022-09-09T03:43:26;100434.91;;;8.44;67.50
44027;BME280;29696;55.698;37.460;2022-09-09T03:45:53;100425.19;;;7.90;69.57
44027;BME280;29696;55.698;37.460;2022-09-09T03:48:24;100433.69;;;7.52;70.96
44027;BME280;29696;55.698;37.460;2022-09-09T03:50:53;100439.72;;;7.26;72.31
44027;BME280;29696;55.698;37.460;2022-09-09T03:53:22;100445.59;;;7.01;73.32
44027;BME280;29696;55.698;37.460;2022-09-09T03:55:51;100446.69;;;6.82;74.56
44027;BME280;29696;55.698;37.460;2022-09-09T03:58:22;100455.47;;;6.67;75.36
44027;BME280;29696;55.698;37.460;2022-09-09T04:01:15;100452.34;;;7.91;75.36
44027;BME280;29696;55.698;37.460;2022-09-09T04:03:44;100447.84;;;9.76;68.00
44027;BME280;29696;55.698;37.460;2022-09-09T04:06:14;100442.63;;;11.53;61.13
44027;BME280;29696;55.698;37.460;2022-09-09T04:08:44;100426.09;;;12.91;55.61
44027;BME280;29696;55.698;37.460;2022-09-09T04:11:14;100448.97;;;14.05;51.42
44027;BME280;29696;55.698;37.460;2022-09-09T04:13:42;100445.91;;;15.16;48.76
44027;BME280;29696;55.698;37.460;2022-09-09T04:16:11;100449.66;;;16.08;45.69
44027;BME280;29696;55.698;37.460;2022-09-09T04:18:43;100453.59;;;16.85;43.03
44027;BME280;29696;55.698;37.460;2022-09-09T04:21:10;100455.50;;;17.79;41.40
44027;BME280;29696;55.698;37.460;2022-09-09T04:23:39;100460.63;;;18.74;39.41
44027;BME280;29696;55.698;37.460;2022-09-09T04:26:06;100448.59;;;19.66;37.21
44027;BME280;29696;55.698;37.460;2022-09-09T04:28:34;100455.16;;;20.34;35.51
44027;BME280;29696;55.698;37.460;2022-09-09T04:31:19;100455.00;;;20.96;34.72
44027;BME280;29696;55.698;37.460;2022-09-09T04:33:49;100462.56;;;21.16;33.36
44027;BME280;29696;55.698;37.460;2022-09-09T04:36:16;100452.88;;;21.59;32.30
44027;BME280;29696;55.698;37.460;2022-09-09T04:38:45;100456.44;;;22.26;31.15
44027;BME280;29696;55.698;37.460;2022-09-09T04:41:12;100445.94;;;22.95;30.22
44027;BME280;29696;55.698;37.460;2022-09-09T04:43:42;100453.16;;;23.86;29.03
44027;BME280;29696;55.698;37.460;2022-09-09T04:46:09;100444.09;;;24.07;28.20
44027;BME280;29696;55.698;37.460;2022-09-09T04:48:35;100451.63;;;24.25;27.54
44027;BME280;29696;55.698;37.460;2022-09-09T04:51:05;100459.03;;;25.24;27.09
44027;BME280;29696;55.698;37.460;2022-09-09T04:53:34;100461.13;;;25.35;26.00
44027;BME280;29696;55.698;37.460;2022-09-09T04:56:19;100462.50;;;26.61;25.99
44027;BME280;29696;55.698;37.460;2022-09-09T04:58:50;100458.53;;;26.25;25.20
44027;BME280;29696;55.698;37.460;2022-09-09T05:01:19;100458.44;;;27.02;24.28
44027;BME280;29696;55.698;37.460;2022-09-09T05:03:48;100462.41;;;27.49;23.48
44027;BME280;29696;55.698;37.460;2022-09-09T05:06:20;100463.06;;;28.18;23.07
44027;BME280;29696;55.698;37.460;2022-09-09T05:08:49;100465.81;;;28.60;22.17
44027;BME280;29696;55.698;37.460;2022-09-09T05:11:39;100472.97;;;29.79;22.37
44027;BME280;29696;55.698;37.460;2022-09-09T05:14:10;100470.66;;;29.35;21.02
44027;BME280;29696;55.698;37.460;2022-09-09T05:16:38;100472.41;;;29.53;20.66
44027;BME280;29696;55.698;37.460;2022-09-09T05:19:05;100477.84;;;29.89;20.32
44027;BME280;29696;55.698;37.460;2022-09-09T05:21:43;100481.38;;;30.30;19.70
44027;BME280;29696;55.698;37.460;2022-09-09T05:24:09;100480.94;;;30.21;19.42
44027;BME280;29696;55.698;37.460;2022-09-09T05:26:37;100484.91;;;30.59;19.40
44027;BME280;29696;55.698;37.460;2022-09-09T05:29:03;100481.38;;;30.75;19.56
44027;BME280;29696;55.698;37.460;2022-09-09T05:31:31;100485.91;;;30.81;19.03
44027;BME280;29696;55.698;37.460;2022-09-09T05:33:59;100478.16;;;30.33;19.11
44027;BME280;29696;55.698;37.460;2022-09-09T05:36:26;100479.97;;;30.27;18.94
44027;BME280;29696;55.698;37.460;2022-09-09T05:38:55;100473.38;;;29.71;19.22
44027;BME280;29696;55.698;37.460;2022-09-09T05:41:22;100482.16;;;29.14;19.61
44027;BME280;29696;55.698;37.460;2022-09-09T05:43:50;100473.13;;;29.49;20.20
44027;BME280;29696;55.698;37.460;2022-09-09T05:46:19;100483.41;;;30.51;18.96
44027;BME280;29696;55.698;37.460;2022-09-09T05:48:48;100473.59;;;30.67;18.89
44027;BME280;29696;55.698;37.460;2022-09-09T05:51:25;100484.91;;;33.07;17.53
44027;BME280;29696;55.698;37.460;2022-09-09T05:53:55;100475.94;;;31.43;18.30
44027;BME280;29696;55.698;37.460;2022-09-09T05:56:27;100489.38;;;31.66;17.89
44027;BME280;29696;55.698;37.460;2022-09-09T05:58:56;100488.13;;;31.96;17.09
44027;BME280;29696;55.698;37.460;2022-09-09T06:01:31;100494.47;;;32.78;17.01
44027;BME280;29696;55.698;37.460;2022-09-09T06:04:00;100482.31;;;31.70;17.48
44027;BME280;29696;55.698;37.460;2022-09-09T06:06:33;100486.06;;;32.30;17.01
44027;BME280;29696;55.698;37.460;2022-09-09T06:09:06;100492.16;;;30.99;17.88
44027;BME280;29696;55.698;37.460;2022-09-09T06:11:37;100495.47;;;29.86;18.99
44027;BME280;29696;55.698;37.460;2022-09-09T06:14:05;100500.19;;;31.05;18.60
44027;BME280;29696;55.698;37.460;2022-09-09T06:16:32;100499.59;;;30.86;17.87
44027;BME280;29696;55.698;37.460;2022-09-09T06:19:00;100496.63;;;30.88;17.74
44027;BME280;29696;55.698;37.460;2022-09-09T06:21:36;100502.72;;;31.63;17.19
44027;BME280;29696;55.698;37.460;2022-09-09T06:24:08;100500.63;;;30.52;17.67
44027;BME280;29696;55.698;37.460;2022-09-09T06:26:38;100503.53;;;31.63;17.39
44027;BME280;29696;55.698;37.460;2022-09-09T06:29:10;100504.72;;;32.11;16.74
44027;BME280;29696;55.698;37.460;2022-09-09T06:31:37;100508.88;;;31.19;17.34
44027;BME280;29696;55.698;37.460;2022-09-09T06:34:09;100498.75;;;32.41;16.35
44027;BME280;29696;55.698;37.460;2022-09-09T06:36:39;100500.22;;;33.46;16.06
44027;BME280;29696;55.698;37.460;2022-09-09T06:39:07;100507.41;;;33.52;15.45
44027;BME280;29696;55.698;37.460;2022-09-09T06:41:37;100497.84;;;33.54;14.99
44027;BME280;29696;55.698;37.460;2022-09-09T06:44:06;100502.28;;;34.28;14.93
44027;BME280;29696;55.698;37.460;2022-09-09T06:46:41;100504.59;;;35.13;14.55
44027;BME280;29696;55.698;37.460;2022-09-09T06:49:09;100521.50;;;35.77;14.09
44027;BME280;29696;55.698;37.460;2022-09-09T06:51:36;100518.94;;;36.11;13.84
44027;BME280;29696;55.698;37.460;2022-09-09T06:54:11;100530.50;;;36.58;13.29
44027;BME280;29696;55.698;37.460;2022-09-09T06:56:39;100518.09;;;36.00;13.30
44027;BME280;29696;55.698;37.460;2022-09-09T06:59:22;100513.63;;;34.93;13.08
44027;BME280;29696;55.698;37.460;2022-09-09T07:01:51;100513.97;;;33.51;14.08
44027;BME280;29696;55.698;37.460;2022-09-09T07:04:19;100520.63;;;33.65;14.39
44027;BME280;29696;55.698;37.460;2022-09-09T07:06:46;100519.53;;;32.96;13.99
44027;BME280;29696;55.698;37.460;2022-09-09T07:09:16;100514.59;;;32.39;14.72
44027;BME280;29696;55.698;37.460;2022-09-09T07:11:51;100526.53;;;29.26;17.49
44027;BME280;29696;55.698;37.460;2022-09-09T07:14:20;100533.47;;;27.58;18.03
44027;BME280;29696;55.698;37.460;2022-09-09T07:16:51;100523.63;;;28.37;17.53
44027;BME280;29696;55.698;37.460;2022-09-09T07:19:18;100528.22;;;28.37;17.18
44027;BME280;29696;55.698;37.460;2022-09-09T07:21:48;100523.03;;;27.37;18.13
44027;BME280;29696;55.698;37.460;2022-09-09T07:24:18;100534.94;;;25.69;19.73
44027;BME280;29696;55.698;37.460;2022-09-09T07:26:44;100530.44;;;23.31;22.13
44027;BME280;29696;55.698;37.460;2022-09-09T07:29:12;100529.28;;;21.50;24.27
44027;BME280;29696;55.698;37.460;2022-09-09T07:31:42;100532.13;;;19.94;26.66
44027;BME280;29696;55.698;37.460;2022-09-09T07:34:12;100540.97;;;19.31;27.92
44027;BME280;29696;55.698;37.460;2022-09-09T07:36:40;100549.28;;;18.20;29.24
44027;BME280;29696;55.698;37.460;2022-09-09T07:39:10;100557.47;;;17.40;30.79
44027;BME280;29696;55.698;37.460;2022-09-09T07:41:46;100555.63;;;17.15;31.38
44027;BME280;29696;55.698;37.460;2022-09-09T07:44:18;100555.84;;;16.12;33.09
44027;BME280;29696;55.698;37.460;2022-09-09T07:46:48;100560.75;;;15.60;33.06
44027;BME280;29696;55.698;37.460;2022-09-09T07:49:19;100563.72;;;15.57;34.12
44027;BME280;29696;55.698;37.460;2022-09-09T07:51:46;100565.81;;;18.66;29.51
44027;BME280;29696;55.698;37.460;2022-09-09T07:54:16;100554.19;;;20.13;27.43
44027;BME280;29696;55.698;37.460;2022-09-09T07:56:47;100552.84;;;19.20;28.05
44027;BME280;29696;55.698;37.460;2022-09-09T07:59:15;100560.09;;;21.25;26.06
44027;BME280;29696;55.698;37.460;2022-09-09T08:01:46;100560.50;;;20.67;26.37
44027;BME280;29696;55.698;37.460;2022-09-09T08:04:19;100567.06;;;19.37;28.19
44027;BME280;29696;55.698;37.460;2022-09-09T08:06:53;100568.41;;;18.41;28.87
44027;BME280;29696;55.698;37.460;2022-09-09T08:09:22;100566.13;;;17.16;29.49
44027;BME280;29696;55.698;37.460;2022-09-09T08:11:52;100568.00;;;16.25;31.34
44027;BME280;29696;55.698;37.460;2022-09-09T08:14:18;100565.97;;;15.71;33.21
44027;BME280;29696;55.698;37.460;2022-09-09T08:16:47;100573.94;;;15.62;33.96
44027;BME280;29696;55.698;37.460;2022-09-09T08:19:17;100564.31;;;15.41;33.74
44027;BME280;29696;55.698;37.460;2022-09-09T08:21:45;100572.72;;;15.37;34.20
44027;BME280;29696;55.698;37.460;2022-09-09T08:24:13;100571.31;;;15.13;34.12
44027;BME280;29696;55.698;37.460;2022-09-09T08:26:47;100589.69;;;15.26;34.16
44027;BME280;29696;55.698;37.460;2022-09-09T08:29:22;100586.03;;;14.88;34.15
44027;BME280;29696;55.698;37.460;2022-09-09T08:31:54;100588.53;;;14.60;34.69
44027;BME280;29696;55.698;37.460;2022-09-09T08:34:21;100579.16;;;14.35;35.40
44027;BME280;29696;55.698;37.460;2022-09-09T08:36:50;100578.88;;;14.29;36.38
44027;BME280;29696;55.698;37.460;2022-09-09T08:39:21;100578.28;;;14.15;36.72
44027;BME280;29696;55.698;37.460;2022-09-09T08:42:29;100574.50;;;14.58;36.27
44027;BME280;29696;55.698;37.460;2022-09-09T08:51:42;100578.56;;;14.12;37.83
44027;BME280;29696;55.698;37.460;2022-09-09T08:54:09;100572.78;;;14.07;37.81
44027;BME280;29696;55.698;37.460;2022-09-09T08:56:36;100583.91;;;14.22;39.26
44027;BME280;29696;55.698;37.460;2022-09-09T08:59:03;100582.78;;;14.25;39.04
44027;BME280;29696;55.698;37.460;2022-09-09T09:18:27;100590.97;;;15.02;36.79
44027;BME280;29696;55.698;37.460;2022-09-09T09:24:19;100591.72;;;14.54;37.71
44027;BME280;29696;55.698;37.460;2022-09-09T09:26:47;100583.31;;;13.88;37.74
44027;BME280;29696;55.698;37.460;2022-09-09T09:29:16;100587.22;;;13.84;38.83
44027;BME280;29696;55.698;37.460;2022-09-09T09:31:54;100588.63;;;13.88;38.47
44027;BME280;29696;55.698;37.460;2022-09-09T09:34:23;100584.09;;;13.79;38.84
44027;BME280;29696;55.698;37.460;2022-09-09T09:36:57;100584.94;;;14.00;37.51
44027;BME280;29696;55.698;37.460;2022-09-09T09:39:30;100588.47;;;13.80;38.25
44027;BME280;29696;55.698;37.460;2022-09-09T09:42:17;100592.44;;;13.95;38.46
44027;BME280;29696;55.698;37.460;2022-09-09T09:44:46;100581.44;;;13.79;38.70
44027;BME280;29696;55.698;37.460;2022-09-09T09:47:20;100576.47;;;13.85;38.30
44027;BME280;29696;55.698;37.460;2022-09-09T09:50:00;100580.09;;;13.84;38.51
44027;BME280;29696;55.698;37.460;2022-09-09T09:52:34;100577.69;;;13.81;39.13
44027;BME280;29696;55.698;37.460;2022-09-09T09:55:18;100583.13;;;14.01;39.54
44027;BME280;29696;55.698;37.460;2022-09-09T09:57:46;100576.59;;;13.84;39.63
44027;BME280;29696;55.698;37.460;2022-09-09T10:00:19;100584.00;;;13.80;40.29
44027;BME280;29696;55.698;37.460;2022-09-09T10:02:54;100589.88;;;13.63;40.78
44027;BME280;29696;55.698;37.460;2022-09-09T10:05:28;100581.97;;;13.73;41.18
44027;BME280;29696;55.698;37.460;2022-09-09T10:08:21;100589.13;;;14.03;39.51
44027;BME280;29696;55.698;37.460;2022-09-09T10:14:35;100586.41;;;14.24;38.73
44027;BME280;29696;55.698;37.460;2022-09-09T10:32:48;100592.19;;;13.98;38.19
44027;BME280;29696;55.698;37.460;2022-09-09T10:47:17;100591.78;;;14.93;37.53
44027;BME280;29696;55.698;37.460;2022-09-09T10:56:20;100592.47;;;14.66;37.92
44027;BME280;29696;55.698;37.460;2022-09-09T10:59:19;100598.19;;;14.61;39.24
44027;BME280;29696;55.698;37.460;2022-09-09T11:01:49;100593.44;;;14.34;38.33
44027;BME280;29696;55.698;37.460;2022-09-09T11:04:24;100594.38;;;14.24;37.86
44027;BME280;29696;55.698;37.460;2022-09-09T11:06:54;100599.81;;;14.12;38.58
44027;BME280;29696;55.698;37.460;2022-09-09T11:09:25;100595.38;;;14.23;37.94
44027;BME280;29696;55.698;37.460;2022-09-09T11:11:56;100590.25;;;14.41;37.70
44027;BME280;29696;55.698;37.460;2022-09-09T11:17:35;100595.94;;;14.57;37.59
44027;BME280;29696;55.698;37.460;2022-09-09T11:20:05;100591.41;;;14.17;38.28
44027;BME280;29696;55.698;37.460;2022-09-09T11:25:55;100599.03;;;13.91;38.86
44027;BME280;29696;55.698;37.460;2022-09-09T11:32:25;100600.66;;;13.61;39.30
44027;BME280;29696;55.698;37.460;2022-09-09T11:38:28;100591.81;;;13.40;40.68
44027;BME280;29696;55.698;37.460;2022-09-09T11:41:05;100598.78;;;13.31;40.59
44027;BME280;29696;55.698;37.460;2022-09-09T11:43:39;100594.94;;;13.45;40.28
44027;BME280;29696;55.698;37.460;2022-09-09T11:46:08;100599.53;;;13.43;40.63
44027;BME280;29696;55.698;37.460;2022-09-09T11:48:46;100595.34;;;13.40;39.75
44027;BME280;29696;55.698;37.460;2022-09-09T11:51:28;100598.06;;;13.50;39.93
44027;BME280;29696;55.698;37.460;2022-09-09T11:54:00;100594.84;;;13.46;39.17
44027;BME280;29696;55.698;37.460;2022-09-09T11:56:44;100590.22;;;13.48;38.55
44027;BME280;29696;55.698;37.460;2022-09-09T11:59:22;100586.41;;;13.41;38.87
44027;BME280;29696;55.698;37.460;2022-09-09T12:02:12;100590.34;;;13.47;39.66
44027;BME280;29696;55.698;37.460;2022-09-09T12:04:49;100583.94;;;13.29;38.86
44027;BME280;29696;55.698;37.460;2022-09-09T12:07:41;100584.63;;;13.52;38.96
44027;BME280;29696;55.698;37.460;2022-09-09T12:10:41;100587.28;;;13.73;39.29
44027;BME280;29696;55.698;37.460;2022-09-09T12:16:05;100588.47;;;13.59;40.70
44027;BME280;29696;55.698;37.460;2022-09-09T12:18:36;100594.41;;;13.30;40.77
44027;BME280;29696;55.698;37.460;2022-09-09T12:24:29;100598.31;;;12.83;42.39
44027;BME280;29696;55.698;37.460;2022-09-09T12:27:09;100584.38;;;12.58;42.91
44027;BME280;29696;55.698;37.460;2022-09-09T12:32:47;100591.75;;;12.54;42.74
44027;BME280;29696;55.698;37.460;2022-09-09T12:35:24;100587.53;;;12.63;42.89
44027;BME280;29696;55.698;37.460;2022-09-09T12:38:15;100589.75;;;12.79;43.20
44027;BME280;29696;55.698;37.460;2022-09-09T12:40:55;100584.97;;;12.73;42.55
44027;BME280;29696;55.698;37.460;2022-09-09T12:43:23;100583.97;;;12.74;42.18
44027;BME280;29696;55.698;37.460;2022-09-09T12:46:03;100582.31;;;12.73;40.94
44027;BME280;29696;55.698;37.460;2022-09-09T12:48:50;100589.59;;;12.92;41.50
44027;BME280;29696;55.698;37.460;2022-09-09T12:51:21;100590.81;;;12.88;41.70
44027;BME280;29696;55.698;37.460;2022-09-09T12:53:51;100588.50;;;12.94;41.06
44027;BME280;29696;55.698;37.460;2022-09-09T12:56:19;100586.00;;;12.93;40.27
44027;BME280;29696;55.698;37.460;2022-09-09T12:58:49;100589.84;;;12.89;40.83
44027;BME280;29696;55.698;37.460;2022-09-09T13:01:22;100587.09;;;12.90;41.14
44027;BME280;29696;55.698;37.460;2022-09-09T13:03:49;100581.44;;;12.84;41.40
44027;BME280;29696;55.698;37.460;2022-09-09T13:06:21;100591.66;;;12.88;41.77
44027;BME280;29696;55.698;37.460;2022-09-09T13:08:52;100586.59;;;12.85;40.88
44027;BME280;29696;55.698;37.460;2022-09-09T13:11:31;100591.63;;;12.99;40.77
44027;BME280;29696;55.698;37.460;2022-09-09T13:14:02;100581.38;;;12.95;41.33
44027;BME280;29696;55.698;37.460;2022-09-09T13:16:31;100574.88;;;12.99;40.36
44027;BME280;29696;55.698;37.460;2022-09-09T13:19:00;100582.56;;;13.02;41.11
44027;BME280;29696;55.698;37.460;2022-09-09T13:21:32;100584.13;;;13.05;41.07
44027;BME280;29696;55.698;37.460;2022-09-09T13:23:59;100577.78;;;12.96;40.34
44027;BME280;29696;55.698;37.460;2022-09-09T13:26:29;100576.56;;;12.89;40.91
44027;BME280;29696;55.698;37.460;2022-09-09T13:29:14;100578.47;;;12.98;41.06
44027;BME280;29696;55.698;37.460;2022-09-09T13:31:42;100574.81;;;12.78;41.15
44027;BME280;29696;55.698;37.460;2022-09-09T13:34:30;100583.84;;;12.87;41.32
44027;BME280;29696;55.698;37.460;2022-09-09T13:37:00;100580.88;;;12.69;41.49
44027;BME280;29696;55.698;37.460;2022-09-09T13:39:28;100577.75;;;12.64;41.85
44027;BME280;29696;55.698;37.460;2022-09-09T13:41:55;100581.13;;;12.66;41.93
44027;BME280;29696;55.698;37.460;2022-09-09T13:44:36;100582.63;;;12.79;42.23
44027;BME280;29696;55.698;37.460;2022-09-09T13:47:21;100582.63;;;12.79;43.15
44027;BME280;29696;55.698;37.460;2022-09-09T13:49:49;100577.16;;;12.60;43.44
44027;BME280;29696;55.698;37.460;2022-09-09T13:52:17;100574.75;;;12.57;41.77
44027;BME280;29696;55.698;37.460;2022-09-09T13:54:51;100581.25;;;12.64;41.58
44027;BME280;29696;55.698;37.460;2022-09-09T13:57:20;100583.56;;;12.57;42.51
44027;BME280;29696;55.698;37.460;2022-09-09T13:59:47;100571.03;;;12.48;42.50
44027;BME280;29696;55.698;37.460;2022-09-09T14:02:15;100579.34;;;12.44;42.85
44027;BME280;29696;55.698;37.460;2022-09-09T14:04:43;100574.19;;;12.42;43.27
44027;BME280;29696;55.698;37.460;2022-09-09T14:07:12;100578.50;;;12.43;43.36
44027;BME280;29696;55.698;37.460;2022-09-09T14:09:39;100578.91;;;12.39;43.94
44027;BME280;29696;55.698;37.460;2022-09-09T14:12:12;100577.53;;;12.44;43.83
44027;BME280;29696;55.698;37.460;2022-09-09T14:14:39;100562.50;;;12.22;44.18
44027;BME280;29696;55.698;37.460;2022-09-09T14:17:08;100569.88;;;12.19;44.56
44027;BME280;29696;55.698;37.460;2022-09-09T14:19:35;100568.28;;;12.16;44.31
44027;BME280;29696;55.698;37.460;2022-09-09T14:22:03;100573.59;;;12.16;44.69
44027;BME280;29696;55.698;37.460;2022-09-09T14:24:29;100571.91;;;12.15;44.41
44027;BME280;29696;55.698;37.460;2022-09-09T14:26:55;100575.75;;;12.11;44.22
44027;BME280;29696;55.698;37.460;2022-09-09T14:29:22;100575.16;;;12.07;44.36
44027;BME280;29696;55.698;37.460;2022-09-09T14:31:48;100572.91;;;12.03;44.31
44027;BME280;29696;55.698;37.460;2022-09-09T14:34:14;100564.81;;;12.04;44.28
44027;BME280;29696;55.698;37.460;2022-09-09T14:36:41;100565.06;;;12.01;44.68
44027;BME280;29696;55.698;37.460;2022-09-09T14:39:07;100577.47;;;12.01;44.40
44027;BME280;29696;55.698;37.460;2022-09-09T14:41:34;100571.31;;;12.00;45.12
44027;BME280;29696;55.698;37.460;2022-09-09T14:44:00;100574.06;;;11.99;45.37
44027;BME280;29696;55.698;37.460;2022-09-09T14:46:26;100570.22;;;11.92;44.91
44027;BME280;29696;55.698;37.460;2022-09-09T14:48:53;100572.16;;;11.90;44.68
44027;BME280;29696;55.698;37.460;2022-09-09T14:51:23;100570.00;;;11.95;45.45
44027;BME280;29696;55.698;37.460;2022-09-09T14:53:52;100575.88;;;11.87;45.19
44027;BME280;29696;55.698;37.460;2022-09-09T14:56:24;100569.88;;;11.85;45.50
44027;BME280;29696;55.698;37.460;2022-09-09T14:58:53;100573.56;;;11.82;45.57
44027;BME280;29696;55.698;37.460;2022-09-09T15:01:20;100568.00;;;11.74;45.30
44027;BME280;29696;55.698;37.460;2022-09-09T15:03:51;100569.81;;;11.74;45.42
44027;BME280;29696;55.698;37.460;2022-09-09T15:06:18;100571.97;;;11.69;45.72
44027;BME280;29696;55.698;37.460;2022-09-09T15:08:45;100572.69;;;11.59;45.69
44027;BME280;29696;55.698;37.460;2022-09-09T15:11:13;100573.38;;;11.50;45.76
44027;BME280;29696;55.698;37.460;2022-09-09T15:13:41;100578.41;;;11.42;46.27